sensor_id;sensor_type;location;lat;lon;timestamp;pressure;altitude;pressure_sealevel;temperature;humidity
75740;BME280;64357;51.344;6.550;2023-04-24T00:01:03;99619.34;;;11.03;78.14
75740;BME280;64357;51.344;6.550;2023-04-24T00:03:31;99619.28;;;11.13;78.10
75740;BME280;64357;51.344;6.550;2023-04-24T00:05:58;99611.38;;;11.10;77.32
75740;BME280;64357;51.344;6.550;2023-04-24T00:08:24;99625.78;;;10.98;77.35
75740;BME280;64357;51.344;6.550;2023-04-24T00:10:49;99615.69;;;10.89;77.46
75740;BME280;64357;51.344;6.550;2023-04-24T00:13:15;99618.72;;;10.95;76.75
75740;BME280;64357;51.344;6.550;2023-04-24T00:15:40;99625.91;;;10.89;76.11
75740;BME280;64357;51.344;6.550;2023-04-24T00:18:05;99627.44;;;10.98;75.95
75740;BME280;64357;51.344;6.550;2023-04-24T00:20:31;99634.25;;;10.87;76.77
75740;BME280;64357;51.344;6.550;2023-04-24T00:23:00;99632.19;;;10.61;77.52
75740;BME280;64357;51.344;6.550;2023-04-24T00:25:25;99636.63;;;10.74;77.28
75740;BME280;64357;51.344;6.550;2023-04-24T00:27:51;99624.00;;;10.65;77.84
75740;BME280;64357;51.344;6.550;2023-04-24T00:30:18;99616.03;;;10.72;77.53
75740;BME280;64357;51.344;6.550;2023-04-24T00:32:44;99616.63;;;10.58;78.33
75740;BME280;64357;51.344;6.550;2023-04-24T00:35:09;99619.78;;;10.33;78.90
75740;BME280;64357;51.344;6.550;2023-04-24T00:37:37;99614.78;;;10.35;79.26
75740;BME280;64357;51.344;6.550;2023-04-24T00:40:06;99618.41;;;10.27;79.82
75740;BME280;64357;51.344;6.550;2023-04-24T00:42:35;99629.50;;;10.27;79.52
75740;BME280;64357;51.344;6.550;2023-04-24T00:45:01;99621.44;;;10.23;79.90
75740;BME280;64357;51.344;6.550;2023-04-24T00:47:28;99629.47;;;10.17;80.06
75740;BME280;64357;51.344;6.550;2023-04-24T00:49:54;99619.56;;;10.10;80.05
75740;BME280;64357;51.344;6.550;2023-04-24T00:52:22;99606.28;;;10.04;80.11
75740;BME280;64357;51.344;6.550;2023-04-24T00:54:49;99623.75;;;10.09;80.26
75740;BME280;64357;51.344;6.550;2023-04-24T00:57:14;99626.44;;;9.91;80.78
75740;BME280;64357;51.344;6.550;2023-04-24T00:59:43;99626.81;;;9.95;80.61
75740;BME280;64357;51.344;6.550;2023-04-24T01:02:10;99633.47;;;9.83;81.00
75740;BME280;64357;51.344;6.550;2023-04-24T01:04:36;99633.97;;;9.89;81.25
75740;BME280;64357;51.344;6.550;2023-04-24T01:07:04;99627.59;;;9.84;80.96
75740;BME280;64357;51.344;6.550;2023-04-24T01:09:35;99629.91;;;9.81;81.17
75740;BME280;64357;51.344;6.550;2023-04-24T01:12:06;99620.09;;;9.85;81.51
75740;BME280;64357;51.344;6.550;2023-04-24T01:14:32;99626.88;;;9.85;81.03
75740;BME280;64357;51.344;6.550;2023-04-24T01:17:00;99626.09;;;9.86;81.60
75740;BME280;64357;51.344;6.550;2023-04-24T01:19:28;99620.94;;;9.96;80.82
75740;BME280;64357;51.344;6.550;2023-04-24T01:21:58;99630.03;;;9.93;80.75
75740;BME280;64357;51.344;6.550;2023-04-24T01:24:24;99622.34;;;10.13;80.40
75740;BME280;64357;51.344;6.550;2023-04-24T01:26:51;99616.06;;;10.20;79.90
75740;BME280;64357;51.344;6.550;2023-04-24T01:29:17;99611.00;;;9.99;80.87
75740;BME280;64357;51.344;6.550;2023-04-24T01:31:42;99627.22;;;10.00;81.19
75740;BME280;64357;51.344;6.550;2023-04-24T01:34:08;99613.94;;;10.04;81.32
75740;BME280;64357;51.344;6.550;2023-04-24T01:36:34;99636.25;;;10.06;81.97
75740;BME280;64357;51.344;6.550;2023-04-24T01:39:00;99629.88;;;10.01;81.82
75740;BME280;64357;51.344;6.550;2023-04-24T01:41:26;99628.97;;;10.11;81.21
75740;BME280;64357;51.344;6.550;2023-04-24T01:43:51;99625.94;;;10.05;81.46
75740;BME280;64357;51.344;6.550;2023-04-24T01:46:22;99627.72;;;10.06;81.51
75740;BME280;64357;51.344;6.550;2023-04-24T01:48:47;99623.63;;;10.08;82.11
75740;BME280;64357;51.344;6.550;2023-04-24T01:51:13;99618.41;;;9.96;82.62
75740;BME280;64357;51.344;6.550;2023-04-24T01:53:41;99617.28;;;9.93;81.67
75740;BME280;64357;51.344;6.550;2023-04-24T01:56:09;99623.16;;;9.81;82.82
75740;BME280;64357;51.344;6.550;2023-04-24T01:58:35;99609.75;;;9.84;81.76
75740;BME280;64357;51.344;6.550;2023-04-24T02:01:01;99619.22;;;9.85;82.13
75740;BME280;64357;51.344;6.550;2023-04-24T02:03:26;99626.09;;;9.86;81.75
75740;BME280;64357;51.344;6.550;2023-04-24T02:05:52;99628.88;;;9.79;82.17
75740;BME280;64357;51.344;6.550;2023-04-24T02:08:22;99623.03;;;9.70;82.46
75740;BME280;64357;51.344;6.550;2023-04-24T02:10:47;99625.03;;;9.84;81.97
75740;BME280;64357;51.344;6.550;2023-04-24T02:13:15;99625.81;;;9.73;82.02
75740;BME280;64357;51.344;6.550;2023-04-24T02:15:42;99616.53;;;9.73;82.22
75740;BME280;64357;51.344;6.550;2023-04-24T02:18:08;99622.50;;;9.53;82.70
75740;BME280;64357;51.344;6.550;2023-04-24T02:20:35;99627.13;;;9.57;82.91
75740;BME280;64357;51.344;6.550;2023-04-24T02:23:01;99620.34;;;9.58;82.79
75740;BME280;64357;51.344;6.550;2023-04-24T02:25:26;99623.13;;;9.61;82.73
75740;BME280;64357;51.344;6.550;2023-04-24T02:27:54;99622.91;;;9.68;82.93
75740;BME280;64357;51.344;6.550;2023-04-24T02:30:22;99621.75;;;9.65;83.04
75740;BME280;64357;51.344;6.550;2023-04-24T02:32:49;99621.25;;;9.69;82.94
75740;BME280;64357;51.344;6.550;2023-04-24T02:35:15;99611.16;;;9.80;82.29
75740;BME280;64357;51.344;6.550;2023-04-24T02:37:43;99622.00;;;9.78;82.11
75740;BME280;64357;51.344;6.550;2023-04-24T02:40:09;99604.41;;;9.71;82.76
75740;BME280;64357;51.344;6.550;2023-04-24T02:42:37;99622.66;;;9.85;82.44
75740;BME280;64357;51.344;6.550;2023-04-24T02:45:02;99617.03;;;9.69;83.05
75740;BME280;64357;51.344;6.550;2023-04-24T02:47:27;99628.09;;;9.90;82.12
75740;BME280;64357;51.344;6.550;2023-04-24T02:49:55;99626.44;;;9.91;81.93
75740;BME280;64357;51.344;6.550;2023-04-24T02:52:20;99634.38;;;9.94;82.16
75740;BME280;64357;51.344;6.550;2023-04-24T02:54:46;99623.16;;;9.81;82.09
75740;BME280;64357;51.344;6.550;2023-04-24T02:57:13;99628.63;;;9.66;83.37
75740;BME280;64357;51.344;6.550;2023-04-24T02:59:39;99639.63;;;9.85;82.98
75740;BME280;64357;51.344;6.550;2023-04-24T03:02:05;99631.19;;;9.76;82.47
75740;BME280;64357;51.344;6.550;2023-04-24T03:04:35;99625.94;;;9.84;83.63
75740;BME280;64357;51.344;6.550;2023-04-24T03:07:02;99635.53;;;9.87;82.33
75740;BME280;64357;51.344;6.550;2023-04-24T03:09:28;99642.50;;;9.89;82.35
75740;BME280;64357;51.344;6.550;2023-04-24T03:11:55;99644.44;;;9.82;82.59
75740;BME280;64357;51.344;6.550;2023-04-24T03:14:21;99645.97;;;9.90;82.39
75740;BME280;64357;51.344;6.550;2023-04-24T03:16:47;99636.78;;;9.92;81.69
75740;BME280;64357;51.344;6.550;2023-04-24T03:19:12;99650.56;;;9.84;82.63
75740;BME280;64357;51.344;6.550;2023-04-24T03:21:38;99644.44;;;9.82;82.62
75740;BME280;64357;51.344;6.550;2023-04-24T03:24:09;99645.06;;;10.00;82.05
75740;BME280;64357;51.344;6.550;2023-04-24T03:26:34;99637.31;;;9.88;82.47
75740;BME280;64357;51.344;6.550;2023-04-24T03:29:02;99646.84;;;9.91;81.71
75740;BME280;64357;51.344;6.550;2023-04-24T03:31:28;99646.09;;;9.81;82.22
75740;BME280;64357;51.344;6.550;2023-04-24T03:33:56;99657.06;;;9.91;81.70
75740;BME280;64357;51.344;6.550;2023-04-24T03:36:24;99655.16;;;9.88;81.88
75740;BME280;64357;51.344;6.550;2023-04-24T03:38:52;99650.56;;;9.84;81.80
75740;BME280;64357;51.344;6.550;2023-04-24T03:41:18;99647.38;;;9.76;82.20
75740;BME280;64357;51.344;6.550;2023-04-24T03:43:44;99653.75;;;9.92;81.98
75740;BME280;64357;51.344;6.550;2023-04-24T03:46:10;99656.16;;;9.90;81.93
75740;BME280;64357;51.344;6.550;2023-04-24T03:48:37;99653.25;;;9.85;81.87
75740;BME280;64357;51.344;6.550;2023-04-24T03:51:05;99649.94;;;9.86;81.87
75740;BME280;64357;51.344;6.550;2023-04-24T03:53:31;99644.19;;;9.89;81.34
75740;BME280;64357;51.344;6.550;2023-04-24T03:55:56;99655.81;;;9.85;82.30
75740;BME280;64357;51.344;6.550;2023-04-24T03:58:24;99641.13;;;9.93;81.57
75740;BME280;64357;51.344;6.550;2023-04-24T04:00:52;99655.44;;;9.91;81.57
75740;BME280;64357;51.344;6.550;2023-04-24T04:03:18;99659.38;;;9.87;81.93
75740;BME280;64357;51.344;6.550;2023-04-24T04:05:43;99641.25;;;9.84;81.50
75740;BME280;64357;51.344;6.550;2023-04-24T04:08:11;99648.66;;;9.81;81.95
75740;BME280;64357;51.344;6.550;2023-04-24T04:10:40;99639.34;;;9.72;81.74
75740;BME280;64357;51.344;6.550;2023-04-24T04:13:06;99659.34;;;9.77;81.83
75740;BME280;64357;51.344;6.550;2023-04-24T04:15:34;99644.44;;;9.82;81.35
75740;BME280;64357;51.344;6.550;2023-04-24T04:18:02;99654.50;;;9.91;80.92
75740;BME280;64357;51.344;6.550;2023-04-24T04:20:30;99657.19;;;9.82;81.57
75740;BME280;64357;51.344;6.550;2023-04-24T04:22:58;99661.16;;;9.88;80.80
75740;BME280;64357;51.344;6.550;2023-04-24T04:25:25;99642.03;;;9.73;80.69
75740;BME280;64357;51.344;6.550;2023-04-24T04:27:51;99663.56;;;9.87;81.40
75740;BME280;64357;51.344;6.550;2023-04-24T04:30:17;99664.47;;;9.87;80.68
75740;BME280;64357;51.344;6.550;2023-04-24T04:32:43;99666.75;;;9.84;80.86
75740;BME280;64357;51.344;6.550;2023-04-24T04:35:11;99664.56;;;9.79;81.07
75740;BME280;64357;51.344;6.550;2023-04-24T04:37:36;99659.25;;;9.76;80.70
75740;BME280;64357;51.344;6.550;2023-04-24T04:40:02;99671.59;;;9.71;80.97
75740;BME280;64357;51.344;6.550;2023-04-24T04:42:36;99665.63;;;9.81;80.53
75740;BME280;64357;51.344;6.550;2023-04-24T04:45:07;99668.41;;;9.84;80.27
75740;BME280;64357;51.344;6.550;2023-04-24T04:47:34;99670.72;;;9.71;80.40
75740;BME280;64357;51.344;6.550;2023-04-24T04:50:02;99665.34;;;9.78;80.64
75740;BME280;64357;51.344;6.550;2023-04-24T04:52:29;99665.88;;;9.64;80.93
75740;BME280;64357;51.344;6.550;2023-04-24T04:54:57;99671.97;;;9.66;81.04
75740;BME280;64357;51.344;6.550;2023-04-24T04:57:22;99692.38;;;9.66;82.32
75740;BME280;64357;51.344;6.550;2023-04-24T04:59:48;99693.13;;;9.54;84.94
75740;BME280;64357;51.344;6.550;2023-04-24T05:02:13;99699.28;;;9.56;86.24
75740;BME280;64357;51.344;6.550;2023-04-24T05:04:39;99692.34;;;9.35;87.35
75740;BME280;64357;51.344;6.550;2023-04-24T05:07:04;99666.25;;;8.98;88.85
75740;BME280;64357;51.344;6.550;2023-04-24T05:09:33;99686.41;;;9.05;88.92
75740;BME280;64357;51.344;6.550;2023-04-24T05:11:58;99690.97;;;8.99;90.01
75740;BME280;64357;51.344;6.550;2023-04-24T05:14:27;99688.41;;;8.99;91.34
75740;BME280;64357;51.344;6.550;2023-04-24T05:16:55;99688.69;;;9.13;89.87
75740;BME280;64357;51.344;6.550;2023-04-24T05:19:20;99687.03;;;9.13;89.08
75740;BME280;64357;51.344;6.550;2023-04-24T05:21:48;99691.00;;;9.20;88.77
75740;BME280;64357;51.344;6.550;2023-04-24T05:24:13;99685.25;;;9.12;89.93
75740;BME280;64357;51.344;6.550;2023-04-24T05:26:38;99696.84;;;9.08;88.65
75740;BME280;64357;51.344;6.550;2023-04-24T05:29:04;99675.03;;;8.92;90.20
75740;BME280;64357;51.344;6.550;2023-04-24T05:31:30;99692.06;;;9.22;89.17
75740;BME280;64357;51.344;6.550;2023-04-24T05:33:55;99691.00;;;9.10;89.66
75740;BME280;64357;51.344;6.550;2023-04-24T05:36:23;99692.66;;;9.19;89.73
75740;BME280;64357;51.344;6.550;2023-04-24T05:38:49;99690.75;;;9.17;87.94
75740;BME280;64357;51.344;6.550;2023-04-24T05:41:14;99696.50;;;9.24;88.21
75740;BME280;64357;51.344;6.550;2023-04-24T05:43:40;99700.19;;;9.18;88.67
75740;BME280;64357;51.344;6.550;2023-04-24T05:46:05;99700.84;;;9.25;88.69
75740;BME280;64357;51.344;6.550;2023-04-24T05:48:33;99697.84;;;9.40;88.38
75740;BME280;64357;51.344;6.550;2023-04-24T05:50:58;99703.66;;;9.28;89.50
75740;BME280;64357;51.344;6.550;2023-04-24T05:53:24;99698.59;;;9.39;90.00
75740;BME280;64357;51.344;6.550;2023-04-24T05:55:49;99678.94;;;9.27;90.90
75740;BME280;64357;51.344;6.550;2023-04-24T05:58:15;99700.09;;;9.26;90.43
75740;BME280;64357;51.344;6.550;2023-04-24T06:00:40;99694.09;;;9.26;90.50
75740;BME280;64357;51.344;6.550;2023-04-24T06:03:07;99701.34;;;9.21;90.30
75740;BME280;64357;51.344;6.550;2023-04-24T06:05:38;99699.78;;;9.13;89.70
75740;BME280;64357;51.344;6.550;2023-04-24T06:08:03;99695.84;;;9.17;90.08
75740;BME280;64357;51.344;6.550;2023-04-24T06:10:31;99686.41;;;9.05;91.02
75740;BME280;64357;51.344;6.550;2023-04-24T06:12:56;99693.63;;;9.01;90.83
75740;BME280;64357;51.344;6.550;2023-04-24T06:15:26;99697.47;;;9.06;92.10
75740;BME280;64357;51.344;6.550;2023-04-24T06:17:52;99702.69;;;8.97;91.48
75740;BME280;64357;51.344;6.550;2023-04-24T06:20:17;99703.59;;;9.08;92.37
75740;BME280;64357;51.344;6.550;2023-04-24T06:22:43;99708.91;;;9.01;91.77
75740;BME280;64357;51.344;6.550;2023-04-24T06:25:08;99705.72;;;8.93;91.62
75740;BME280;64357;51.344;6.550;2023-04-24T06:27:37;99711.06;;;8.96;92.78
75740;BME280;64357;51.344;6.550;2023-04-24T06:30:02;99715.53;;;8.99;93.62
75740;BME280;64357;51.344;6.550;2023-04-24T06:32:30;99721.41;;;9.08;93.03
75740;BME280;64357;51.344;6.550;2023-04-24T06:34:58;99705.84;;;8.95;93.89
75740;BME280;64357;51.344;6.550;2023-04-24T06:37:23;99715.13;;;8.94;93.30
75740;BME280;64357;51.344;6.550;2023-04-24T06:39:49;99717.56;;;8.93;93.17
75740;BME280;64357;51.344;6.550;2023-04-24T06:42:16;99712.72;;;8.96;93.53
75740;BME280;64357;51.344;6.550;2023-04-24T06:44:42;99711.94;;;8.97;95.06
75740;BME280;64357;51.344;6.550;2023-04-24T06:47:08;99715.25;;;8.96;93.48
75740;BME280;64357;51.344;6.550;2023-04-24T06:49:37;99705.88;;;9.05;94.19
75740;BME280;64357;51.344;6.550;2023-04-24T06:52:03;99715.94;;;9.03;94.10
75740;BME280;64357;51.344;6.550;2023-04-24T06:54:29;99719.75;;;8.98;94.44
75740;BME280;64357;51.344;6.550;2023-04-24T06:56:55;99707.78;;;8.78;93.41
75740;BME280;64357;51.344;6.550;2023-04-24T06:59:22;99720.63;;;8.70;93.68
75740;BME280;64357;51.344;6.550;2023-04-24T07:01:47;99732.69;;;8.62;94.42
75740;BME280;64357;51.344;6.550;2023-04-24T07:04:13;99728.75;;;8.47;94.36
75740;BME280;64357;51.344;6.550;2023-04-24T07:06:38;99733.91;;;8.38;94.75
75740;BME280;64357;51.344;6.550;2023-04-24T07:09:04;99735.50;;;8.19;95.50
75740;BME280;64357;51.344;6.550;2023-04-24T07:11:29;99735.72;;;8.12;96.52
75740;BME280;64357;51.344;6.550;2023-04-24T07:13:57;99724.19;;;8.15;96.23
75740;BME280;64357;51.344;6.550;2023-04-24T07:16:26;99731.09;;;8.26;94.04
75740;BME280;64357;51.344;6.550;2023-04-24T07:18:53;99728.38;;;8.34;94.12
75740;BME280;64357;51.344;6.550;2023-04-24T07:21:18;99717.38;;;8.24;94.44
75740;BME280;64357;51.344;6.550;2023-04-24T07:23:44;99717.03;;;8.30;93.69
75740;BME280;64357;51.344;6.550;2023-04-24T07:26:09;99719.78;;;8.23;93.15
75740;BME280;64357;51.344;6.550;2023-04-24T07:28:38;99736.28;;;8.18;93.51
75740;BME280;64357;51.344;6.550;2023-04-24T07:31:07;99737.72;;;8.24;93.72
75740;BME280;64357;51.344;6.550;2023-04-24T07:33:38;99725.41;;;8.10;94.86
75740;BME280;64357;51.344;6.550;2023-04-24T07:36:03;99732.72;;;8.16;95.42
75740;BME280;64357;51.344;6.550;2023-04-24T07:38:29;99735.38;;;8.17;95.41
75740;BME280;64357;51.344;6.550;2023-04-24T07:40:57;99741.88;;;7.86;96.46
75740;BME280;64357;51.344;6.550;2023-04-24T07:43:25;99755.63;;;7.80;96.65
75740;BME280;64357;51.344;6.550;2023-04-24T07:45:51;99760.06;;;7.91;98.03
75740;BME280;64357;51.344;6.550;2023-04-24T07:48:16;99755.53;;;7.97;98.11
75740;BME280;64357;51.344;6.550;2023-04-24T07:50:45;99765.16;;;7.91;98.78
75740;BME280;64357;51.344;6.550;2023-04-24T07:53:10;99767.53;;;7.98;98.52
75740;BME280;64357;51.344;6.550;2023-04-24T07:55:38;99755.41;;;7.95;98.89
75740;BME280;64357;51.344;6.550;2023-04-24T07:58:03;99762.50;;;8.08;98.89
75740;BME280;64357;51.344;6.550;2023-04-24T08:00:29;99765.13;;;7.99;99.43
75740;BME280;64357;51.344;6.550;2023-04-24T08:02:56;99768.03;;;8.13;98.56
75740;BME280;64357;51.344;6.550;2023-04-24T08:05:22;99759.75;;;7.96;99.47
75740;BME280;64357;51.344;6.550;2023-04-24T08:07:53;99782.03;;;7.99;100.00
75740;BME280;64357;51.344;6.550;2023-04-24T08:10:18;99785.47;;;7.99;98.99
75740;BME280;64357;51.344;6.550;2023-04-24T08:12:44;99781.50;;;7.84;99.25
75740;BME280;64357;51.344;6.550;2023-04-24T08:15:09;99806.28;;;7.95;99.42
75740;BME280;64357;51.344;6.550;2023-04-24T08:17:37;99806.97;;;8.03;98.68
75740;BME280;64357;51.344;6.550;2023-04-24T08:20:05;99821.44;;;8.13;99.57
75740;BME280;64357;51.344;6.550;2023-04-24T08:22:35;99820.75;;;8.05;99.40
75740;BME280;64357;51.344;6.550;2023-04-24T08:25:00;99841.59;;;8.20;99.74
75740;BME280;64357;51.344;6.550;2023-04-24T08:27:26;99841.59;;;8.20;99.14
75740;BME280;64357;51.344;6.550;2023-04-24T08:29:56;99840.69;;;8.19;97.87
75740;BME280;64357;51.344;6.550;2023-04-24T08:32:22;99853.59;;;8.21;98.89
75740;BME280;64357;51.344;6.550;2023-04-24T08:34:50;99866.91;;;8.18;99.26
75740;BME280;64357;51.344;6.550;2023-04-24T08:37:17;99871.28;;;8.11;100.00
75740;BME280;64357;51.344;6.550;2023-04-24T08:39:45;99867.13;;;8.02;100.00
75740;BME280;64357;51.344;6.550;2023-04-24T08:42:11;99876.13;;;7.99;100.00
75740;BME280;64357;51.344;6.550;2023-04-24T08:44:42;99897.03;;;8.05;100.00
75740;BME280;64357;51.344;6.550;2023-04-24T08:47:08;99901.38;;;8.06;100.00
75740;BME280;64357;51.344;6.550;2023-04-24T08:49:38;99913.19;;;8.06;100.00
75740;BME280;64357;51.344;6.550;2023-04-24T08:52:06;99922.75;;;8.08;98.03
75740;BME280;64357;51.344;6.550;2023-04-24T08:54:37;99920.25;;;7.99;98.63
75740;BME280;64357;51.344;6.550;2023-04-24T08:57:04;99940.88;;;8.02;98.85
75740;BME280;64357;51.344;6.550;2023-04-24T08:59:31;99938.81;;;7.98;99.21
75740;BME280;64357;51.344;6.550;2023-04-24T09:01:57;99958.25;;;7.98;99.70
75740;BME280;64357;51.344;6.550;2023-04-24T09:04:24;99962.28;;;8.05;99.95
75740;BME280;64357;51.344;6.550;2023-04-24T09:06:51;99969.91;;;8.05;100.00
75740;BME280;64357;51.344;6.550;2023-04-24T09:09:19;99958.00;;;7.86;99.38
75740;BME280;64357;51.344;6.550;2023-04-24T09:11:44;99975.63;;;7.85;100.00
75740;BME280;64357;51.344;6.550;2023-04-24T09:14:10;99975.94;;;7.88;100.00
75740;BME280;64357;51.344;6.550;2023-04-24T09:16:36;99985.97;;;7.86;97.29
75740;BME280;64357;51.344;6.550;2023-04-24T09:19:03;99988.34;;;7.85;96.83
75740;BME280;64357;51.344;6.550;2023-04-24T09:21:33;100000.59;;;7.89;98.68
75740;BME280;64357;51.344;6.550;2023-04-24T09:24:06;100011.38;;;7.86;97.93
75740;BME280;64357;51.344;6.550;2023-04-24T09:26:35;100018.25;;;7.87;100.00
75740;BME280;64357;51.344;6.550;2023-04-24T09:29:03;100020.94;;;7.89;100.00
75740;BME280;64357;51.344;6.550;2023-04-24T09:31:30;100028.88;;;7.92;100.00
75740;BME280;64357;51.344;6.550;2023-04-24T09:38:57;100037.22;;;8.17;100.00
75740;BME280;64357;51.344;6.550;2023-04-24T09:41:26;100053.69;;;8.12;100.00
75740;BME280;64357;51.344;6.550;2023-04-24T09:43:53;100057.69;;;8.18;100.00
75740;BME280;64357;51.344;6.550;2023-04-24T09:46:21;100071.44;;;8.20;100.00
75740;BME280;64357;51.344;6.550;2023-04-24T09:48:47;100062.03;;;8.28;100.00
75740;BME280;64357;51.344;6.550;2023-04-24T09:51:13;100075.50;;;8.27;100.00
75740;BME280;64357;51.344;6.550;2023-04-24T09:53:44;100085.69;;;8.36;100.00
75740;BME280;64357;51.344;6.550;2023-04-24T09:56:10;100083.28;;;8.28;98.22
75740;BME280;64357;51.344;6.550;2023-04-24T09:58:38;100096.75;;;8.36;98.51
75740;BME280;64357;51.344;6.550;2023-04-24T10:01:04;100100.78;;;8.43;99.20
75740;BME280;64357;51.344;6.550;2023-04-24T10:03:30;100095.13;;;8.45;98.58
75740;BME280;64357;51.344;6.550;2023-04-24T10:06:01;100094.78;;;8.51;96.18
75740;BME280;64357;51.344;6.550;2023-04-24T10:08:35;100115.31;;;8.44;95.94
75740;BME280;64357;51.344;6.550;2023-04-24T10:11:04;100104.97;;;8.42;96.12
75740;BME280;64357;51.344;6.550;2023-04-24T10:13:30;100109.19;;;8.42;96.48
75740;BME280;64357;51.344;6.550;2023-04-24T10:15:56;100125.16;;;8.49;96.00
75740;BME280;64357;51.344;6.550;2023-04-24T10:18:21;100126.53;;;8.37;95.38
75740;BME280;64357;51.344;6.550;2023-04-24T10:20:48;100126.09;;;8.24;98.16
75740;BME280;64357;51.344;6.550;2023-04-24T10:23:14;100132.97;;;8.34;98.61
75740;BME280;64357;51.344;6.550;2023-04-24T10:25:41;100123.22;;;8.29;98.98
75740;BME280;64357;51.344;6.550;2023-04-24T10:28:07;100137.31;;;8.35;98.49
75740;BME280;64357;51.344;6.550;2023-04-24T10:30:34;100130.28;;;8.23;97.70
75740;BME280;64357;51.344;6.550;2023-04-24T10:33:07;100135.50;;;8.25;97.64
75740;BME280;64357;51.344;6.550;2023-04-24T10:35:42;100154.66;;;8.30;98.11
75740;BME280;64357;51.344;6.550;2023-04-24T10:38:14;100147.47;;;8.35;98.41
75740;BME280;64357;51.344;6.550;2023-04-24T10:40:42;100156.50;;;8.40;98.71
75740;BME280;64357;51.344;6.550;2023-04-24T10:43:08;100148.88;;;8.40;98.01
75740;BME280;64357;51.344;6.550;2023-04-24T10:45:38;100163.22;;;8.57;97.59
75740;BME280;64357;51.344;6.550;2023-04-24T10:48:09;100162.44;;;8.66;96.54
75740;BME280;64357;51.344;6.550;2023-04-24T10:53:13;100170.03;;;8.92;95.35
75740;BME280;64357;51.344;6.550;2023-04-24T10:58:11;100174.84;;;8.80;93.99
75740;BME280;64357;51.344;6.550;2023-04-24T11:00:40;100172.56;;;8.92;95.01
75740;BME280;64357;51.344;6.550;2023-04-24T11:03:22;100196.69;;;8.87;92.10
75740;BME280;64357;51.344;6.550;2023-04-24T11:08:43;100203.88;;;8.91;90.34
75740;BME280;64357;51.344;6.550;2023-04-24T11:16:52;100211.41;;;9.26;87.45
75740;BME280;64357;51.344;6.550;2023-04-24T11:19:18;100211.41;;;9.26;86.30
75740;BME280;64357;51.344;6.550;2023-04-24T11:27:13;100224.06;;;9.79;84.14
75740;BME280;64357;51.344;6.550;2023-04-24T11:34:52;100219.88;;;9.80;82.25
75740;BME280;64357;51.344;6.550;2023-04-24T11:37:22;100228.47;;;9.91;80.76
75740;BME280;64357;51.344;6.550;2023-04-24T11:39:50;100233.31;;;9.87;81.32
75740;BME280;64357;51.344;6.550;2023-04-24T11:42:15;100237.72;;;9.80;80.51
75740;BME280;64357;51.344;6.550;2023-04-24T11:44:45;100242.75;;;9.88;80.91
75740;BME280;64357;51.344;6.550;2023-04-24T11:47:16;100230.00;;;9.88;80.79
75740;BME280;64357;51.344;6.550;2023-04-24T11:49:46;100233.75;;;10.11;80.36
75740;BME280;64357;51.344;6.550;2023-04-24T11:52:15;100248.75;;;10.17;80.35
75740;BME280;64357;51.344;6.550;2023-04-24T11:54:47;100245.72;;;10.21;81.80
75740;BME280;64357;51.344;6.550;2023-04-24T11:57:13;100260.34;;;9.85;80.80
75740;BME280;64357;51.344;6.550;2023-04-24T11:59:41;100258.16;;;9.71;81.13
75740;BME280;64357;51.344;6.550;2023-04-24T12:02:07;100259.69;;;9.60;80.38
75740;BME280;64357;51.344;6.550;2023-04-24T12:04:39;100264.84;;;9.43;79.14
75740;BME280;64357;51.344;6.550;2023-04-24T12:07:06;100285.13;;;9.42;80.21
75740;BME280;64357;51.344;6.550;2023-04-24T12:09:44;100285.28;;;9.34;80.67
75740;BME280;64357;51.344;6.550;2023-04-24T12:12:17;100277.06;;;9.28;80.22
75740;BME280;64357;51.344;6.550;2023-04-24T12:15:06;100296.78;;;9.48;78.56
75740;BME280;64357;51.344;6.550;2023-04-24T12:17:33;100284.59;;;9.63;79.25
75740;BME280;64357;51.344;6.550;2023-04-24T12:20:01;100299.19;;;9.83;78.20
75740;BME280;64357;51.344;6.550;2023-04-24T12:22:27;100285.09;;;9.86;77.32
75740;BME280;64357;51.344;6.550;2023-04-24T12:24:58;100300.25;;;10.12;76.62
75740;BME280;64357;51.344;6.550;2023-04-24T12:27:24;100289.34;;;10.05;75.69
75740;BME280;64357;51.344;6.550;2023-04-24T12:29:55;100302.09;;;10.05;75.35
75740;BME280;64357;51.344;6.550;2023-04-24T12:32:24;100295.00;;;9.83;73.58
75740;BME280;64357;51.344;6.550;2023-04-24T12:34:50;100298.44;;;9.84;73.42
75740;BME280;64357;51.344;6.550;2023-04-24T12:37:16;100302.75;;;9.94;72.41
75740;BME280;64357;51.344;6.550;2023-04-24T12:40:06;100303.22;;;9.89;73.05
75740;BME280;64357;51.344;6.550;2023-04-24T12:42:32;100307.16;;;9.86;71.75
75740;BME280;64357;51.344;6.550;2023-04-24T12:45:06;100308.63;;;9.93;73.54
75740;BME280;64357;51.344;6.550;2023-04-24T12:47:32;100305.44;;;9.95;73.76
75740;BME280;64357;51.344;6.550;2023-04-24T12:50:01;100325.97;;;10.05;73.44
75740;BME280;64357;51.344;6.550;2023-04-24T12:52:28;100313.22;;;10.05;72.86
75740;BME280;64357;51.344;6.550;2023-04-24T12:54:55;100322.06;;;10.09;72.50
75740;BME280;64357;51.344;6.550;2023-04-24T12:57:24;100325.31;;;10.17;71.48
75740;BME280;64357;51.344;6.550;2023-04-24T12:59:50;100322.47;;;10.13;71.70
75740;BME280;64357;51.344;6.550;2023-04-24T13:02:16;100338.94;;;10.26;71.00
75740;BME280;64357;51.344;6.550;2023-04-24T13:04:44;100331.91;;;10.23;71.00
75740;BME280;64357;51.344;6.550;2023-04-24T13:07:13;100327.53;;;10.22;69.82
75740;BME280;64357;51.344;6.550;2023-04-24T13:09:40;100327.69;;;10.24;69.94
75740;BME280;64357;51.344;6.550;2023-04-24T13:12:06;100328.81;;;10.36;69.04
75740;BME280;64357;51.344;6.550;2023-04-24T13:14:34;100342.34;;;10.62;68.68
75740;BME280;64357;51.344;6.550;2023-04-24T13:16:59;100334.38;;;10.78;67.64
75740;BME280;64357;51.344;6.550;2023-04-24T13:19:28;100344.63;;;10.97;66.67
75740;BME280;64357;51.344;6.550;2023-04-24T13:21:55;100331.41;;;10.92;66.52
75740;BME280;64357;51.344;6.550;2023-04-24T13:24:24;100341.91;;;10.77;64.97
75740;BME280;64357;51.344;6.550;2023-04-24T13:26:55;100335.25;;;10.79;65.13
75740;BME280;64357;51.344;6.550;2023-04-24T13:29:22;100349.84;;;10.99;65.16
75740;BME280;64357;51.344;6.550;2023-04-24T13:31:50;100344.25;;;11.03;65.84
75740;BME280;64357;51.344;6.550;2023-04-24T13:34:15;100343.97;;;11.00;65.09